more information


Thunder radar more information blitzortung!


Rain radar more information rain snow radar


Visit our other weather sites:

Template documentation
and downloads

And another site


Nearby METAR Reports

   
EHVK - Volkel Rnlafb, Netherlands
Distance from station: SW 11 mi
Updated: Mar 31 2020 9:55 pm
Clear  
Clear  
   Wind: North 4 mph
Wind: North 4 mph
Temperature: 28°F
Wind Chill: 25°F
Dew Point: 25°F
Humidity: 86%
Barometer: 30.3 inHg
Clouds: Clear
Visibility: More than 6 mi
Cloud details: Clear
EHVK 010155Z AUTO 36003KT 9999 NCD M02/M04 Q1026 BLU
EDLV - Niederrhein, Germany
Distance from station: SE 15 mi
Updated: Mar 29 2020 6:50 am
NOT Current
Mostly Cloudy  
Mostly Cloudy  
   Wind: NNE 14 mph
Wind: NNE 14 mph
Temperature: 41°F
Wind Chill: 34°F
Dew Point: 30°F
Humidity: 66%
Barometer: 30.39 inHg
Clouds: Mostly Cloudy
Visibility: More than 6 mi
Cloud details: Mostly Cloudy 1097 m
EDLV 291050Z 03012KT 360V070 9999 BKN036 05/M01 Q1029
EHDL - Deelen Rnlafb, Netherlands
Distance from station: N 22 mi
Updated: Mar 31 2020 9:55 pm
Clear  
Clear  
   Wind: NW 1 mph
Wind: NW 1 mph
Temperature: 27°F
Dew Point: 21°F
Humidity: 80%
Barometer: 30.3 inHg
Clouds: Clear
Visibility: More than 6 mi
Cloud details: Clear
EHDL 010155Z AUTO 31001KT 9999 NCD M03/M06 Q1026 BLU
EHEH - Eindhoven Rnlafb, Netherlands
Distance from station: SW 30 mi
Updated: Mar 31 2020 9:55 pm
Clear  
Clear  
   Wind: Calm
Wind: Calm
Temperature: 28°F
Dew Point: 25°F
Humidity: 86%
Barometer: 30.3 inHg
Clouds: Clear
Visibility: More than 6 mi
Cloud details: Clear
EHEH 010155Z AUTO 00000KT 9999 NCD M02/M04 Q1026 BLU
EHGR - Gilze-Rijen Rnla, Netherlands
Distance from station: WSW 43 mi
Updated: Mar 31 2020 9:55 pm
Clear  
Clear  
   Wind: ENE 1 mph
Wind: ENE 1 mph
Temperature: 28°F
Dew Point: 25°F
Humidity: 86%
Barometer: 30.3 inHg
Clouds: Clear
Visibility: More than 6 mi
Cloud details: Clear
EHGR 010155Z AUTO 06001KT 9999 NCD M02/M04 Q1026 BLU
EBBL - Kleine-Brogel(Ba, Belgium
Distance from station: SSW 44 mi
Updated: Mar 31 2020 9:55 pm
Clear  
Clear  
   Wind: varies 1 mph
Wind: varies 1 mph
Temperature: 28°F
Dew Point: 25°F
Humidity: 86%
Barometer: 30.3 inHg
Clouds: Clear
Visibility: More than 6 mi
Cloud details: Clear
EBBL 010155Z AUTO VRB01KT 9999 NCD M02/M04 Q1026 BLU

Script developed by  Saratoga-weather.org Adapted for the template by  Weerstation Leuven

You find our weather info also at:

WeatherCloud

Weather Underground

Citizen Weather Observer Program (CWOP)

Equipment we use:

Weather-station
Davis VP2

Weather-program
Cumulus

Davis VP2

Cumulus